Santa Clara, California
Current Conditions -  °F | °C
As of 1:31 AM on Saturday 20 Dec 2014 (Local Time) from KSJC Reporting Station
Overcast Overcast  
Wind Chill: 55°   Ceiling: 4700
Heat Index: 55°   Visibility: 10mi
Dew Point: 54°   Wind: 7mph
Humidity: 94%   Direction: 140°SE
Pressure: 30.13"   Gusts: NA
Location:  37.36°N, 121.95°W
Report Text: KSJC 200931Z AUTO 14006KT 10SM SCT030 BKN047 OVC055 13/12 A3013 RMK AO2
Loading
Personal Weather Stations






























Interactive Weather Map New forecast layout! Learn more

10-Day Weather Forecast

Advertisements
Track Severe Weather on mobile